sensor_id;sensor_type;location;lat;lon;timestamp;P1;durP1;ratioP1;P2;durP2;ratioP2
34982;SDS011;21187;50.976;13.720;2023-09-19T00:04:56;1.63;;;1.02;;
34982;SDS011;21187;50.976;13.720;2023-09-19T00:09:58;4.32;;;1.13;;
34982;SDS011;21187;50.976;13.720;2023-09-19T00:15:00;2.05;;;0.88;;
34982;SDS011;21187;50.976;13.720;2023-09-19T00:20:02;1.88;;;0.90;;
34982;SDS011;21187;50.976;13.720;2023-09-19T00:25:14;10.23;;;0.98;;
34982;SDS011;21187;50.976;13.720;2023-09-19T00:30:17;2.35;;;1.08;;
34982;SDS011;21187;50.976;13.720;2023-09-19T00:35:23;7.28;;;1.35;;
34982;SDS011;21187;50.976;13.720;2023-09-19T00:40:28;12.88;;;1.10;;
34982;SDS011;21187;50.976;13.720;2023-09-19T00:45:31;1.70;;;1.17;;
34982;SDS011;21187;50.976;13.720;2023-09-19T00:50:35;4.90;;;1.00;;
34982;SDS011;21187;50.976;13.720;2023-09-19T00:55:37;3.50;;;1.15;;
34982;SDS011;21187;50.976;13.720;2023-09-19T01:00:40;2.05;;;0.80;;
34982;SDS011;21187;50.976;13.720;2023-09-19T01:05:42;2.03;;;1.10;;
34982;SDS011;21187;50.976;13.720;2023-09-19T01:10:46;1.23;;;0.80;;
34982;SDS011;21187;50.976;13.720;2023-09-19T01:16:23;1.55;;;0.60;;
34982;SDS011;21187;50.976;13.720;2023-09-19T01:32:03;5.15;;;0.80;;
34982;SDS011;21187;50.976;13.720;2023-09-19T01:37:06;5.88;;;1.38;;
34982;SDS011;21187;50.976;13.720;2023-09-19T01:42:15;3.30;;;0.88;;
34982;SDS011;21187;50.976;13.720;2023-09-19T01:47:49;3.08;;;0.85;;
34982;SDS011;21187;50.976;13.720;2023-09-19T01:53:15;1.98;;;0.90;;
34982;SDS011;21187;50.976;13.720;2023-09-19T01:58:31;1.67;;;1.00;;
34982;SDS011;21187;50.976;13.720;2023-09-19T02:03:40;3.35;;;0.88;;
34982;SDS011;21187;50.976;13.720;2023-09-19T02:08:43;1.98;;;1.02;;
34982;SDS011;21187;50.976;13.720;2023-09-19T02:13:49;5.47;;;1.02;;
34982;SDS011;21187;50.976;13.720;2023-09-19T02:18:56;3.05;;;0.90;;
34982;SDS011;21187;50.976;13.720;2023-09-19T02:23:58;2.10;;;0.80;;
34982;SDS011;21187;50.976;13.720;2023-09-19T02:29:00;3.08;;;0.80;;
34982;SDS011;21187;50.976;13.720;2023-09-19T02:34:03;3.65;;;0.90;;
34982;SDS011;21187;50.976;13.720;2023-09-19T02:39:05;2.17;;;0.90;;
34982;SDS011;21187;50.976;13.720;2023-09-19T02:44:07;1.77;;;0.95;;
34982;SDS011;21187;50.976;13.720;2023-09-19T02:49:09;4.40;;;1.00;;
34982;SDS011;21187;50.976;13.720;2023-09-19T02:54:11;3.10;;;1.30;;
34982;SDS011;21187;50.976;13.720;2023-09-19T02:59:14;2.35;;;0.80;;
34982;SDS011;21187;50.976;13.720;2023-09-19T03:04:16;1.20;;;0.77;;
34982;SDS011;21187;50.976;13.720;2023-09-19T03:09:22;0.95;;;0.70;;
34982;SDS011;21187;50.976;13.720;2023-09-19T03:14:24;2.83;;;0.82;;
34982;SDS011;21187;50.976;13.720;2023-09-19T03:19:27;5.85;;;1.05;;
34982;SDS011;21187;50.976;13.720;2023-09-19T03:24:31;3.72;;;1.10;;
34982;SDS011;21187;50.976;13.720;2023-09-19T03:29:36;5.05;;;1.02;;
34982;SDS011;21187;50.976;13.720;2023-09-19T03:34:38;1.88;;;0.70;;
34982;SDS011;21187;50.976;13.720;2023-09-19T03:39:46;1.60;;;1.00;;
34982;SDS011;21187;50.976;13.720;2023-09-19T03:44:49;1.92;;;0.90;;
34982;SDS011;21187;50.976;13.720;2023-09-19T03:49:51;4.65;;;1.00;;
34982;SDS011;21187;50.976;13.720;2023-09-19T03:54:53;1.90;;;0.98;;
34982;SDS011;21187;50.976;13.720;2023-09-19T03:59:56;1.40;;;0.90;;
34982;SDS011;21187;50.976;13.720;2023-09-19T04:04:57;2.33;;;0.98;;
34982;SDS011;21187;50.976;13.720;2023-09-19T04:09:59;1.05;;;0.70;;
34982;SDS011;21187;50.976;13.720;2023-09-19T04:15:01;2.67;;;1.13;;
34982;SDS011;21187;50.976;13.720;2023-09-19T04:20:04;1.73;;;0.90;;
34982;SDS011;21187;50.976;13.720;2023-09-19T04:25:08;4.55;;;1.40;;
34982;SDS011;21187;50.976;13.720;2023-09-19T04:30:10;7.10;;;1.00;;
34982;SDS011;21187;50.976;13.720;2023-09-19T04:35:13;7.15;;;1.40;;
34982;SDS011;21187;50.976;13.720;2023-09-19T04:40:16;6.63;;;1.10;;
34982;SDS011;21187;50.976;13.720;2023-09-19T04:45:21;1.88;;;0.93;;
34982;SDS011;21187;50.976;13.720;2023-09-19T04:50:23;5.57;;;1.08;;
34982;SDS011;21187;50.976;13.720;2023-09-19T04:55:28;2.50;;;1.13;;
34982;SDS011;21187;50.976;13.720;2023-09-19T05:00:32;3.55;;;1.30;;
34982;SDS011;21187;50.976;13.720;2023-09-19T05:05:36;2.63;;;1.05;;
34982;SDS011;21187;50.976;13.720;2023-09-19T05:10:40;1.83;;;1.20;;
34982;SDS011;21187;50.976;13.720;2023-09-19T05:15:42;1.73;;;1.17;;
34982;SDS011;21187;50.976;13.720;2023-09-19T05:20:44;2.20;;;1.00;;
34982;SDS011;21187;50.976;13.720;2023-09-19T05:25:46;4.03;;;1.00;;
34982;SDS011;21187;50.976;13.720;2023-09-19T05:30:48;1.33;;;0.90;;
34982;SDS011;21187;50.976;13.720;2023-09-19T05:35:50;5.03;;;1.20;;
34982;SDS011;21187;50.976;13.720;2023-09-19T05:40:52;2.25;;;0.80;;
34982;SDS011;21187;50.976;13.720;2023-09-19T05:45:54;6.13;;;1.00;;
34982;SDS011;21187;50.976;13.720;2023-09-19T05:50:58;2.15;;;0.95;;
34982;SDS011;21187;50.976;13.720;2023-09-19T05:56:00;1.67;;;1.00;;
34982;SDS011;21187;50.976;13.720;2023-09-19T06:01:02;2.45;;;1.20;;
34982;SDS011;21187;50.976;13.720;2023-09-19T06:06:05;3.58;;;1.30;;
34982;SDS011;21187;50.976;13.720;2023-09-19T06:11:07;3.17;;;1.15;;
34982;SDS011;21187;50.976;13.720;2023-09-19T06:16:10;3.72;;;1.13;;
34982;SDS011;21187;50.976;13.720;2023-09-19T06:21:12;1.67;;;1.13;;
34982;SDS011;21187;50.976;13.720;2023-09-19T06:26:14;1.95;;;0.80;;
34982;SDS011;21187;50.976;13.720;2023-09-19T06:31:16;1.88;;;1.05;;
34982;SDS011;21187;50.976;13.720;2023-09-19T06:36:18;6.18;;;1.30;;
34982;SDS011;21187;50.976;13.720;2023-09-19T06:41:20;1.83;;;1.02;;
34982;SDS011;21187;50.976;13.720;2023-09-19T06:46:26;3.00;;;1.45;;
34982;SDS011;21187;50.976;13.720;2023-09-19T06:51:34;1.77;;;0.85;;
34982;SDS011;21187;50.976;13.720;2023-09-19T06:56:36;3.35;;;0.93;;
34982;SDS011;21187;50.976;13.720;2023-09-19T07:01:38;3.47;;;0.93;;
34982;SDS011;21187;50.976;13.720;2023-09-19T07:06:41;1.80;;;1.00;;
34982;SDS011;21187;50.976;13.720;2023-09-19T07:11:43;4.97;;;1.15;;
34982;SDS011;21187;50.976;13.720;2023-09-19T07:16:46;2.97;;;0.80;;
34982;SDS011;21187;50.976;13.720;2023-09-19T07:21:49;4.28;;;0.80;;
34982;SDS011;21187;50.976;13.720;2023-09-19T07:26:52;3.85;;;0.85;;
34982;SDS011;21187;50.976;13.720;2023-09-19T07:31:53;2.50;;;0.98;;
34982;SDS011;21187;50.976;13.720;2023-09-19T07:36:56;6.03;;;1.42;;
34982;SDS011;21187;50.976;13.720;2023-09-19T07:41:58;2.53;;;1.10;;
34982;SDS011;21187;50.976;13.720;2023-09-19T07:47:00;3.90;;;0.80;;
34982;SDS011;21187;50.976;13.720;2023-09-19T07:52:05;2.25;;;0.90;;
34982;SDS011;21187;50.976;13.720;2023-09-19T07:57:06;0.90;;;0.70;;
34982;SDS011;21187;50.976;13.720;2023-09-19T08:02:08;3.35;;;0.68;;
34982;SDS011;21187;50.976;13.720;2023-09-19T08:07:17;2.72;;;0.88;;
34982;SDS011;21187;50.976;13.720;2023-09-19T08:12:19;2.20;;;0.60;;
34982;SDS011;21187;50.976;13.720;2023-09-19T08:17:25;2.33;;;0.60;;
34982;SDS011;21187;50.976;13.720;2023-09-19T08:22:27;2.15;;;1.10;;
34982;SDS011;21187;50.976;13.720;2023-09-19T08:27:29;1.02;;;0.70;;
34982;SDS011;21187;50.976;13.720;2023-09-19T08:32:32;5.95;;;1.00;;
34982;SDS011;21187;50.976;13.720;2023-09-19T08:37:34;6.00;;;1.10;;
34982;SDS011;21187;50.976;13.720;2023-09-19T08:42:55;1.23;;;0.50;;
34982;SDS011;21187;50.976;13.720;2023-09-19T08:53:26;3.63;;;0.60;;
34982;SDS011;21187;50.976;13.720;2023-09-19T08:58:59;4.63;;;1.70;;
34982;SDS011;21187;50.976;13.720;2023-09-19T09:04:04;6.50;;;1.00;;
34982;SDS011;21187;50.976;13.720;2023-09-19T09:09:15;1.85;;;0.75;;
34982;SDS011;21187;50.976;13.720;2023-09-19T09:14:17;2.20;;;0.85;;
34982;SDS011;21187;50.976;13.720;2023-09-19T09:19:21;2.38;;;0.90;;
34982;SDS011;21187;50.976;13.720;2023-09-19T09:24:29;4.53;;;1.30;;
34982;SDS011;21187;50.976;13.720;2023-09-19T09:29:48;5.90;;;0.90;;
34982;SDS011;21187;50.976;13.720;2023-09-19T09:34:53;1.02;;;0.60;;
34982;SDS011;21187;50.976;13.720;2023-09-19T09:40:02;5.50;;;0.63;;
34982;SDS011;21187;50.976;13.720;2023-09-19T09:45:27;3.30;;;0.88;;
34982;SDS011;21187;50.976;13.720;2023-09-19T09:50:35;1.17;;;0.85;;
34982;SDS011;21187;50.976;13.720;2023-09-19T09:55:59;2.35;;;0.90;;
34982;SDS011;21187;50.976;13.720;2023-09-19T10:01:08;3.75;;;0.90;;
34982;SDS011;21187;50.976;13.720;2023-09-19T10:06:11;1.23;;;0.70;;
34982;SDS011;21187;50.976;13.720;2023-09-19T10:11:24;1.95;;;0.73;;
34982;SDS011;21187;50.976;13.720;2023-09-19T10:16:32;1.23;;;0.68;;
34982;SDS011;21187;50.976;13.720;2023-09-19T10:21:36;1.25;;;0.57;;
34982;SDS011;21187;50.976;13.720;2023-09-19T10:26:38;1.17;;;0.70;;
34982;SDS011;21187;50.976;13.720;2023-09-19T10:31:40;6.65;;;0.60;;
34982;SDS011;21187;50.976;13.720;2023-09-19T10:36:49;2.20;;;0.73;;
34982;SDS011;21187;50.976;13.720;2023-09-19T10:41:53;1.00;;;0.57;;
34982;SDS011;21187;50.976;13.720;2023-09-19T10:47:00;1.52;;;0.68;;
34982;SDS011;21187;50.976;13.720;2023-09-19T10:52:04;3.53;;;0.80;;
34982;SDS011;21187;50.976;13.720;2023-09-19T10:57:13;8.07;;;0.75;;
34982;SDS011;21187;50.976;13.720;2023-09-19T11:02:21;2.28;;;0.80;;
34982;SDS011;21187;50.976;13.720;2023-09-19T11:07:25;2.20;;;0.80;;
34982;SDS011;21187;50.976;13.720;2023-09-19T11:17:52;1.77;;;0.85;;
34982;SDS011;21187;50.976;13.720;2023-09-19T11:23:16;2.65;;;1.05;;
34982;SDS011;21187;50.976;13.720;2023-09-19T11:33:25;3.58;;;0.90;;
34982;SDS011;21187;50.976;13.720;2023-09-19T11:48:49;2.90;;;0.90;;
34982;SDS011;21187;50.976;13.720;2023-09-19T11:53:55;3.97;;;0.90;;
34982;SDS011;21187;50.976;13.720;2023-09-19T11:59:01;2.17;;;1.37;;
34982;SDS011;21187;50.976;13.720;2023-09-19T12:04:05;1.60;;;1.10;;
34982;SDS011;21187;50.976;13.720;2023-09-19T12:09:13;1.75;;;0.75;;
34982;SDS011;21187;50.976;13.720;2023-09-19T12:14:22;1.35;;;0.80;;
34982;SDS011;21187;50.976;13.720;2023-09-19T12:19:26;2.67;;;1.00;;
34982;SDS011;21187;50.976;13.720;2023-09-19T12:24:29;2.70;;;1.08;;
34982;SDS011;21187;50.976;13.720;2023-09-19T12:29:32;4.65;;;1.13;;
34982;SDS011;21187;50.976;13.720;2023-09-19T12:34:50;6.75;;;1.10;;
34982;SDS011;21187;50.976;13.720;2023-09-19T12:40:03;3.55;;;1.02;;
34982;SDS011;21187;50.976;13.720;2023-09-19T12:45:16;5.47;;;1.05;;
34982;SDS011;21187;50.976;13.720;2023-09-19T12:50:20;6.70;;;0.82;;
34982;SDS011;21187;50.976;13.720;2023-09-19T12:55:31;7.07;;;0.85;;
34982;SDS011;21187;50.976;13.720;2023-09-19T13:00:39;1.65;;;0.73;;
34982;SDS011;21187;50.976;13.720;2023-09-19T13:16:12;2.27;;;1.00;;
34982;SDS011;21187;50.976;13.720;2023-09-19T13:21:16;6.82;;;1.30;;
34982;SDS011;21187;50.976;13.720;2023-09-19T13:26:25;1.92;;;1.13;;
34982;SDS011;21187;50.976;13.720;2023-09-19T13:31:27;2.97;;;1.13;;
34982;SDS011;21187;50.976;13.720;2023-09-19T13:36:29;2.15;;;0.93;;
34982;SDS011;21187;50.976;13.720;2023-09-19T13:41:31;1.75;;;0.90;;
34982;SDS011;21187;50.976;13.720;2023-09-19T13:46:33;5.30;;;0.93;;
34982;SDS011;21187;50.976;13.720;2023-09-19T13:51:37;5.43;;;0.98;;
34982;SDS011;21187;50.976;13.720;2023-09-19T13:56:39;2.28;;;1.23;;
34982;SDS011;21187;50.976;13.720;2023-09-19T14:01:41;1.45;;;1.05;;
34982;SDS011;21187;50.976;13.720;2023-09-19T14:06:43;3.53;;;1.50;;
34982;SDS011;21187;50.976;13.720;2023-09-19T14:11:47;3.03;;;1.50;;
34982;SDS011;21187;50.976;13.720;2023-09-19T14:16:49;5.55;;;1.17;;
34982;SDS011;21187;50.976;13.720;2023-09-19T14:21:51;4.93;;;1.40;;
34982;SDS011;21187;50.976;13.720;2023-09-19T14:26:56;2.17;;;1.00;;
34982;SDS011;21187;50.976;13.720;2023-09-19T14:31:58;2.83;;;1.13;;
34982;SDS011;21187;50.976;13.720;2023-09-19T14:37:01;2.92;;;1.15;;
34982;SDS011;21187;50.976;13.720;2023-09-19T14:42:02;5.38;;;1.15;;
34982;SDS011;21187;50.976;13.720;2023-09-19T14:47:05;4.38;;;1.38;;
34982;SDS011;21187;50.976;13.720;2023-09-19T14:52:09;2.35;;;1.25;;
34982;SDS011;21187;50.976;13.720;2023-09-19T14:57:11;2.13;;;1.30;;
34982;SDS011;21187;50.976;13.720;2023-09-19T15:02:15;3.17;;;1.40;;
34982;SDS011;21187;50.976;13.720;2023-09-19T15:07:18;5.28;;;1.40;;
34982;SDS011;21187;50.976;13.720;2023-09-19T15:12:21;4.90;;;1.20;;
34982;SDS011;21187;50.976;13.720;2023-09-19T15:17:23;1.85;;;1.08;;
34982;SDS011;21187;50.976;13.720;2023-09-19T15:22:28;6.15;;;1.30;;
34982;SDS011;21187;50.976;13.720;2023-09-19T15:27:30;4.10;;;1.20;;
34982;SDS011;21187;50.976;13.720;2023-09-19T15:32:33;2.60;;;1.40;;
34982;SDS011;21187;50.976;13.720;2023-09-19T15:37:35;2.42;;;1.20;;
34982;SDS011;21187;50.976;13.720;2023-09-19T15:42:38;4.20;;;1.30;;
34982;SDS011;21187;50.976;13.720;2023-09-19T15:47:40;2.45;;;1.33;;
34982;SDS011;21187;50.976;13.720;2023-09-19T15:52:42;2.90;;;1.27;;
34982;SDS011;21187;50.976;13.720;2023-09-19T15:57:44;2.80;;;1.30;;
34982;SDS011;21187;50.976;13.720;2023-09-19T16:02:46;3.03;;;1.52;;
34982;SDS011;21187;50.976;13.720;2023-09-19T16:07:52;5.32;;;1.75;;
34982;SDS011;21187;50.976;13.720;2023-09-19T16:12:54;2.17;;;1.48;;
34982;SDS011;21187;50.976;13.720;2023-09-19T16:17:56;8.13;;;2.15;;
34982;SDS011;21187;50.976;13.720;2023-09-19T16:22:58;4.28;;;1.95;;
34982;SDS011;21187;50.976;13.720;2023-09-19T16:28:00;3.72;;;1.63;;
34982;SDS011;21187;50.976;13.720;2023-09-19T16:33:02;3.72;;;1.75;;
34982;SDS011;21187;50.976;13.720;2023-09-19T16:38:04;3.90;;;1.77;;
34982;SDS011;21187;50.976;13.720;2023-09-19T16:43:06;3.80;;;1.73;;
34982;SDS011;21187;50.976;13.720;2023-09-19T16:48:08;4.45;;;1.73;;
34982;SDS011;21187;50.976;13.720;2023-09-19T16:53:10;10.25;;;1.90;;
34982;SDS011;21187;50.976;13.720;2023-09-19T16:58:12;6.32;;;1.70;;
34982;SDS011;21187;50.976;13.720;2023-09-19T17:03:15;2.90;;;1.77;;
34982;SDS011;21187;50.976;13.720;2023-09-19T17:08:17;10.82;;;1.83;;
34982;SDS011;21187;50.976;13.720;2023-09-19T17:13:19;5.82;;;1.95;;
34982;SDS011;21187;50.976;13.720;2023-09-19T17:18:21;5.82;;;1.90;;
34982;SDS011;21187;50.976;13.720;2023-09-19T17:23:23;3.08;;;1.60;;
34982;SDS011;21187;50.976;13.720;2023-09-19T17:28:28;3.45;;;1.60;;
34982;SDS011;21187;50.976;13.720;2023-09-19T17:33:31;5.38;;;1.58;;
34982;SDS011;21187;50.976;13.720;2023-09-19T17:38:33;8.02;;;1.63;;
34982;SDS011;21187;50.976;13.720;2023-09-19T17:43:35;2.63;;;1.50;;
34982;SDS011;21187;50.976;13.720;2023-09-19T17:48:39;9.27;;;1.77;;
34982;SDS011;21187;50.976;13.720;2023-09-19T17:53:48;4.10;;;1.90;;
34982;SDS011;21187;50.976;13.720;2023-09-19T17:58:50;3.63;;;1.70;;
34982;SDS011;21187;50.976;13.720;2023-09-19T18:03:57;4.63;;;1.88;;
34982;SDS011;21187;50.976;13.720;2023-09-19T18:09:02;4.45;;;1.75;;
34982;SDS011;21187;50.976;13.720;2023-09-19T18:14:09;5.70;;;2.10;;
34982;SDS011;21187;50.976;13.720;2023-09-19T18:19:11;3.35;;;1.80;;
34982;SDS011;21187;50.976;13.720;2023-09-19T18:24:14;6.03;;;2.25;;
34982;SDS011;21187;50.976;13.720;2023-09-19T18:29:16;6.43;;;2.05;;
34982;SDS011;21187;50.976;13.720;2023-09-19T18:34:18;7.82;;;2.03;;
34982;SDS011;21187;50.976;13.720;2023-09-19T18:39:20;4.05;;;1.85;;
34982;SDS011;21187;50.976;13.720;2023-09-19T18:44:24;6.90;;;1.85;;
34982;SDS011;21187;50.976;13.720;2023-09-19T18:49:26;10.60;;;2.15;;
34982;SDS011;21187;50.976;13.720;2023-09-19T18:54:28;6.70;;;1.85;;
34982;SDS011;21187;50.976;13.720;2023-09-19T18:59:30;8.75;;;1.73;;
34982;SDS011;21187;50.976;13.720;2023-09-19T19:04:35;6.57;;;2.58;;
34982;SDS011;21187;50.976;13.720;2023-09-19T19:09:40;4.93;;;2.20;;
34982;SDS011;21187;50.976;13.720;2023-09-19T19:14:42;5.93;;;2.05;;
34982;SDS011;21187;50.976;13.720;2023-09-19T19:19:48;3.58;;;1.80;;
34982;SDS011;21187;50.976;13.720;2023-09-19T19:24:50;4.10;;;1.50;;
34982;SDS011;21187;50.976;13.720;2023-09-19T19:29:52;3.42;;;1.35;;
34982;SDS011;21187;50.976;13.720;2023-09-19T19:34:54;6.45;;;1.85;;
34982;SDS011;21187;50.976;13.720;2023-09-19T19:39:56;6.38;;;1.73;;
34982;SDS011;21187;50.976;13.720;2023-09-19T19:44:58;4.53;;;1.40;;
34982;SDS011;21187;50.976;13.720;2023-09-19T19:50:00;3.58;;;1.60;;
34982;SDS011;21187;50.976;13.720;2023-09-19T19:55:02;6.15;;;1.50;;
34982;SDS011;21187;50.976;13.720;2023-09-19T20:00:04;3.03;;;1.60;;
34982;SDS011;21187;50.976;13.720;2023-09-19T20:05:07;5.43;;;1.50;;
34982;SDS011;21187;50.976;13.720;2023-09-19T20:10:10;6.10;;;1.42;;
34982;SDS011;21187;50.976;13.720;2023-09-19T20:15:17;3.58;;;1.50;;
34982;SDS011;21187;50.976;13.720;2023-09-19T20:20:19;3.35;;;1.00;;
34982;SDS011;21187;50.976;13.720;2023-09-19T20:25:24;3.90;;;1.38;;
34982;SDS011;21187;50.976;13.720;2023-09-19T20:30:30;4.10;;;1.42;;
34982;SDS011;21187;50.976;13.720;2023-09-19T20:35:36;6.82;;;1.33;;
34982;SDS011;21187;50.976;13.720;2023-09-19T20:40:41;5.45;;;1.40;;
34982;SDS011;21187;50.976;13.720;2023-09-19T20:45:45;5.50;;;1.45;;
34982;SDS011;21187;50.976;13.720;2023-09-19T20:50:47;5.85;;;1.73;;
34982;SDS011;21187;50.976;13.720;2023-09-19T20:55:49;4.25;;;1.45;;
34982;SDS011;21187;50.976;13.720;2023-09-19T21:00:52;8.10;;;1.65;;
34982;SDS011;21187;50.976;13.720;2023-09-19T21:06:01;4.45;;;1.20;;
34982;SDS011;21187;50.976;13.720;2023-09-19T21:11:15;5.22;;;1.02;;
34982;SDS011;21187;50.976;13.720;2023-09-19T21:16:18;5.03;;;1.20;;
34982;SDS011;21187;50.976;13.720;2023-09-19T21:21:22;2.83;;;1.13;;
34982;SDS011;21187;50.976;13.720;2023-09-19T21:26:27;5.40;;;1.60;;
34982;SDS011;21187;50.976;13.720;2023-09-19T21:31:29;2.00;;;1.10;;
34982;SDS011;21187;50.976;13.720;2023-09-19T21:36:31;6.00;;;1.63;;
34982;SDS011;21187;50.976;13.720;2023-09-19T21:41:35;4.93;;;1.08;;
34982;SDS011;21187;50.976;13.720;2023-09-19T21:46:37;4.00;;;1.38;;
34982;SDS011;21187;50.976;13.720;2023-09-19T21:51:41;2.35;;;1.20;;
34982;SDS011;21187;50.976;13.720;2023-09-19T21:56:43;3.38;;;1.33;;
34982;SDS011;21187;50.976;13.720;2023-09-19T22:01:44;8.02;;;1.27;;
34982;SDS011;21187;50.976;13.720;2023-09-19T22:06:46;4.47;;;1.40;;
34982;SDS011;21187;50.976;13.720;2023-09-19T22:11:49;7.65;;;1.10;;
34982;SDS011;21187;50.976;13.720;2023-09-19T22:16:52;3.05;;;1.23;;
34982;SDS011;21187;50.976;13.720;2023-09-19T22:21:54;4.82;;;1.75;;
34982;SDS011;21187;50.976;13.720;2023-09-19T22:26:56;2.83;;;1.20;;
34982;SDS011;21187;50.976;13.720;2023-09-19T22:31:58;2.22;;;1.20;;
34982;SDS011;21187;50.976;13.720;2023-09-19T22:37:00;4.03;;;1.23;;
34982;SDS011;21187;50.976;13.720;2023-09-19T22:42:02;3.80;;;1.30;;
34982;SDS011;21187;50.976;13.720;2023-09-19T22:52:15;2.53;;;1.05;;
34982;SDS011;21187;50.976;13.720;2023-09-19T22:57:19;6.07;;;1.13;;
34982;SDS011;21187;50.976;13.720;2023-09-19T23:02:22;4.60;;;1.23;;
34982;SDS011;21187;50.976;13.720;2023-09-19T23:07:30;3.17;;;1.00;;
34982;SDS011;21187;50.976;13.720;2023-09-19T23:12:32;5.78;;;1.13;;
34982;SDS011;21187;50.976;13.720;2023-09-19T23:17:34;4.07;;;1.20;;
34982;SDS011;21187;50.976;13.720;2023-09-19T23:22:37;2.22;;;1.13;;
34982;SDS011;21187;50.976;13.720;2023-09-19T23:27:42;3.53;;;1.00;;
34982;SDS011;21187;50.976;13.720;2023-09-19T23:32:48;1.15;;;0.88;;
34982;SDS011;21187;50.976;13.720;2023-09-19T23:37:50;5.30;;;1.05;;
34982;SDS011;21187;50.976;13.720;2023-09-19T23:42:52;5.15;;;1.20;;
34982;SDS011;21187;50.976;13.720;2023-09-19T23:47:55;4.38;;;1.10;;
34982;SDS011;21187;50.976;13.720;2023-09-19T23:52:57;3.67;;;1.17;;
34982;SDS011;21187;50.976;13.720;2023-09-19T23:58:02;3.50;;;0.88;;
